Time;durP1;ratioP1;P1;durP2;ratioP2;P2;SDS_P1;SDS_P2;PMS_P1;PMS_P2;Temp;Humidity;BMP_temperature;BMP_pressure;BME280_temperature;BME280_humidity;BME280_pressure;Samples;Min_cycle;Max_cycle;Signal;HPM_P1;HPM_P2
2021/12/24 10:28:28;;;;;;;;;8.00;5.00;;;;;;;;5154771;27;1486488;-69
2021/12/24 10:31:02;;;;;;;;;10.00;7.25;;;;;;;;5189837;27;21802;-71
2021/12/24 10:33:27;;;;;;;;;7.00;6.00;;;;;;;;5187295;27;21470;-70
2021/12/24 10:36:02;;;;;;;;;9.00;7.00;;;;;;;;5186054;27;21692;-70
2021/12/24 10:38:28;;;;;;;;;7.00;5.00;;;;;;;;5187690;27;8788;-69
2021/12/24 10:40:55;;;;;;;;;8.00;7.50;;;;;;;;5186701;27;12381;-70
2021/12/24 10:43:24;;;;;;;;;8.25;7.50;;;;;;;;5168608;27;12782;-70
2021/12/24 10:46:07;;;;;;;;;5.75;5.00;;;;;;;;5196262;27;12217;-70
2021/12/24 10:48:32;;;;;;;;;10.25;5.50;;;;;;;;5197771;27;11565;-71
2021/12/24 10:51:05;;;;;;;;;9.00;8.00;;;;;;;;5198393;27;23030;-72
2021/12/24 10:53:51;;;;;;;;;6.25;3.50;;;;;;;;5198381;27;21415;-73
2021/12/24 10:56:28;;;;;;;;;4.50;4.50;;;;;;;;5198898;27;11415;-75
2021/12/24 10:58:53;;;;;;;;;7.25;7.25;;;;;;;;5199298;27;11560;-73
2021/12/24 11:01:19;;;;;;;;;9.50;6.50;;;;;;;;5180061;27;11386;-71
2021/12/24 11:03:44;;;;;;;;;7.00;6.25;;;;;;;;5199073;27;11629;-72
2021/12/24 11:06:11;;;;;;;;;7.00;5.00;;;;;;;;5198279;27;12831;-73
2021/12/24 11:08:37;;;;;;;;;6.50;5.50;;;;;;;;5196182;27;8813;-72
2021/12/24 11:11:05;;;;;;;;;8.00;6.75;;;;;;;;5196654;27;11637;-73
2021/12/24 11:13:38;;;;;;;;;6.25;4.75;;;;;;;;5198406;27;12869;-73
2021/12/24 11:16:03;;;;;;;;;5.25;5.25;;;;;;;;5193759;27;11554;-72
2021/12/24 11:18:34;;;;;;;;;9.00;7.00;;;;;;;;5177237;27;11506;-73
2021/12/24 11:21:01;;;;;;;;;6.25;6.25;;;;;;;;5177437;27;11543;-74
2021/12/24 11:23:28;;;;;;;;;7.00;7.00;;;;;;;;5177030;27;11443;-72
2021/12/24 11:25:54;;;;;;;;;4.25;4.00;;;;;;;;5177772;27;12378;-75
2021/12/24 11:28:22;;;;;;;;;8.00;5.00;;;;;;;;5176907;27;11426;-73
2021/12/24 11:30:49;;;;;;;;;7.75;6.50;;;;;;;;5176824;27;11399;-73
2021/12/24 11:33:16;;;;;;;;;5.50;5.50;;;;;;;;5180501;27;11613;-73
2021/12/24 11:35:42;;;;;;;;;8.50;7.00;;;;;;;;5179442;27;11381;-77
2021/12/24 11:38:08;;;;;;;;;9.25;6.50;;;;;;;;5193360;27;11793;-74
2021/12/24 11:40:33;;;;;;;;;6.50;5.00;;;;;;;;5174955;27;11534;-73
2021/12/24 11:43:03;;;;;;;;;8.00;5.00;;;;;;;;5163421;27;11500;-74
2021/12/24 11:45:30;;;;;;;;;5.75;4.25;;;;;;;;5163654;27;9370;-74
2021/12/24 11:47:56;;;;;;;;;10.00;7.50;;;;;;;;5166487;27;11544;-73
2021/12/24 11:50:22;;;;;;;;;8.25;7.00;;;;;;;;5181286;27;21820;-76
2021/12/24 11:52:48;;;;;;;;;5.00;5.00;;;;;;;;5183293;27;21566;-76
2021/12/24 11:55:14;;;;;;;;;7.75;7.00;;;;;;;;5166733;27;11429;-74
2021/12/24 11:57:56;;;;;;;;;9.00;6.00;;;;;;;;5173054;27;11443;-74
2021/12/24 12:00:40;;;;;;;;;7.50;4.75;;;;;;;;5172550;27;10543;-75
2021/12/24 12:03:08;;;;;;;;;8.00;6.50;;;;;;;;5170440;27;12103;-74
2021/12/24 12:05:34;;;;;;;;;8.50;8.00;;;;;;;;5170690;27;11521;-75
2021/12/24 12:08:26;;;;;;;;;7.00;7.00;;;;;;;;5170065;27;11402;-76
2021/12/24 12:10:59;;;;;;;;;6.50;6.50;;;;;;;;5178035;27;11420;-77
2021/12/24 12:13:44;;;;;;;;;6.75;4.75;;;;;;;;5183447;27;11366;-76
2021/12/24 12:16:14;;;;;;;;;8.75;8.25;;;;;;;;5184546;27;11396;-85
2021/12/24 12:18:45;;;;;;;;;8.00;7.00;;;;;;;;5176795;27;11414;-82
2021/12/24 12:21:12;;;;;;;;;9.00;6.00;;;;;;;;5164421;27;11414;-77
2021/12/24 12:24:56;;;;;;;;;8.75;7.75;;;;;;;;5183657;27;12115;-75
2021/12/24 12:26:36;;;;;;;;;5.50;4.50;;;;;;;;5181840;27;12405;-76
2021/12/24 12:29:18;;;;;;;;;8.00;7.75;;;;;;;;5163291;27;13529;-74
2021/12/24 12:31:43;;;;;;;;;5.00;5.00;;;;;;;;5183328;27;11920;-77
2021/12/24 12:34:27;;;;;;;;;8.75;7.00;;;;;;;;5159929;27;13215;-78
2021/12/24 12:36:53;;;;;;;;;7.00;7.00;;;;;;;;5171722;27;10412;-77
2021/12/24 12:39:27;;;;;;;;;7.00;5.75;;;;;;;;5170716;27;11393;-78
2021/12/24 12:41:53;;;;;;;;;10.25;7.00;;;;;;;;5107114;27;10330;-80
2021/12/24 12:44:19;;;;;;;;;10.50;9.00;;;;;;;;5139427;27;21535;-81
2021/12/24 12:46:46;;;;;;;;;9.00;7.50;;;;;;;;5141449;27;10418;-81
2021/12/24 12:49:16;;;;;;;;;9.00;7.50;;;;;;;;5140236;27;21509;-76
2021/12/24 12:51:54;;;;;;;;;9.25;7.00;;;;;;;;5138851;27;11420;-76
2021/12/24 12:54:30;;;;;;;;;8.50;5.00;;;;;;;;5139721;27;12064;-76
2021/12/24 12:57:11;;;;;;;;;10.00;7.00;;;;;;;;5087348;27;11384;-76
2021/12/24 12:59:36;;;;;;;;;7.25;6.50;;;;;;;;5117983;28;21426;-77
2021/12/24 13:02:02;;;;;;;;;10.00;7.00;;;;;;;;5118057;28;21830;-76
2021/12/24 13:04:27;;;;;;;;;6.75;4.00;;;;;;;;5115126;28;22754;-76
2021/12/24 13:06:54;;;;;;;;;7.00;5.00;;;;;;;;5116051;28;22579;-81
2021/12/24 13:09:32;;;;;;;;;7.00;6.25;;;;;;;;5118113;28;11609;-80
2021/12/24 13:11:58;;;;;;;;;7.75;6.00;;;;;;;;5116082;28;11403;-80
2021/12/24 13:14:25;;;;;;;;;9.25;9.25;;;;;;;;5099077;28;11474;-73
2021/12/24 13:17:05;;;;;;;;;6.00;6.00;;;;;;;;5096167;28;11740;-79
2021/12/24 13:19:58;;;;;;;;;7.50;7.50;;;;;;;;5118532;28;11624;-83
2021/12/24 13:24:59;;;;;;;;;6.75;5.50;;;;;;;;5119286;28;11455;-76
2021/12/24 13:27:27;;;;;;;;;9.25;5.25;;;;;;;;5119637;28;11639;-82
2021/12/24 13:30:07;;;;;;;;;5.00;4.00;;;;;;;;5118789;28;11976;-74
2021/12/24 13:32:37;;;;;;;;;8.00;5.25;;;;;;;;5119497;28;11772;-74
2021/12/24 13:35:03;;;;;;;;;4.00;4.00;;;;;;;;5119158;28;11440;-78
2021/12/24 13:37:32;;;;;;;;;3.75;1.25;;;;;;;;5100724;28;11533;-75
2021/12/24 13:39:57;;;;;;;;;6.00;5.50;;;;;;;;5119328;28;11391;-75
2021/12/24 13:42:22;;;;;;;;;7.50;4.50;;;;;;;;5119471;28;11532;-75
2021/12/24 13:44:49;;;;;;;;;6.25;5.00;;;;;;;;5119258;28;10725;-77
2021/12/24 13:47:33;;;;;;;;;6.00;3.75;;;;;;;;5100841;28;12877;-78
2021/12/24 13:55:20;;;;;;;;;4.25;4.25;;;;;;;;5119432;28;11306;-80
2021/12/24 13:57:57;;;;;;;;;2.25;1.00;;;;;;;;5104604;28;11694;-79
2021/12/24 14:00:23;;;;;;;;;4.00;3.75;;;;;;;;5080078;28;14690;-73
2021/12/24 14:02:52;;;;;;;;;6.00;6.00;;;;;;;;5097234;28;11665;-73
2021/12/24 14:05:19;;;;;;;;;6.25;6.25;;;;;;;;5098271;28;11420;-74
2021/12/24 14:07:46;;;;;;;;;6.00;6.00;;;;;;;;5099061;28;11392;-73
2021/12/24 14:10:22;;;;;;;;;7.50;4.00;;;;;;;;5080670;28;11406;-72
2021/12/24 14:12:47;;;;;;;;;4.75;4.25;;;;;;;;5097586;28;11386;-74
2021/12/24 14:15:15;;;;;;;;;11.00;6.50;;;;;;;;5075388;27;11457;-73
2021/12/24 14:23:21;;;;;;;;;11.75;8.00;;;;;;;;5139561;27;11336;-75
2021/12/24 14:38:17;;;;;;;;;4.25;4.00;;;;;;;;5214596;27;76876;-74
2021/12/24 14:40:43;;;;;;;;;4.25;4.00;;;;;;;;5197831;27;20615;-73
2021/12/24 14:43:15;;;;;;;;;6.00;5.00;;;;;;;;5199134;27;11681;-72
2021/12/24 14:45:42;;;;;;;;;5.00;4.00;;;;;;;;5196336;27;12064;-73
2021/12/24 14:48:26;;;;;;;;;6.00;5.75;;;;;;;;5187711;27;11544;-74
2021/12/24 14:50:56;;;;;;;;;5.75;4.25;;;;;;;;5191332;27;13129;-71
2021/12/24 14:53:23;;;;;;;;;7.75;2.50;;;;;;;;5178670;27;13005;-71
2021/12/24 14:55:50;;;;;;;;;4.75;2.00;;;;;;;;5199262;27;11442;-72
2021/12/24 14:58:30;;;;;;;;;4.25;2.50;;;;;;;;5198283;27;12463;-73
2021/12/24 15:00:56;;;;;;;;;4.50;2.00;;;;;;;;5190216;27;11459;-72
2021/12/24 15:03:27;;;;;;;;;1.75;1.75;;;;;;;;5194190;27;11477;-75
2021/12/24 15:05:52;;;;;;;;;5.00;4.25;;;;;;;;5198029;27;11440;-77
2021/12/24 15:08:21;;;;;;;;;4.50;4.00;;;;;;;;5179436;27;12240;-81
2021/12/24 15:10:56;;;;;;;;;3.50;3.50;;;;;;;;5197546;27;11960;-73
2021/12/24 15:13:23;;;;;;;;;5.75;4.00;;;;;;;;5197322;27;12262;-77
2021/12/24 15:15:52;;;;;;;;;4.75;4.00;;;;;;;;5197803;27;11898;-75
2021/12/24 15:18:17;;;;;;;;;4.00;4.00;;;;;;;;5166995;27;11540;-77
2021/12/24 15:20:43;;;;;;;;;4.25;4.00;;;;;;;;5187041;27;11461;-79
2021/12/24 15:23:08;;;;;;;;;5.50;2.50;;;;;;;;5185710;27;9557;-75
2021/12/24 15:25:34;;;;;;;;;5.25;4.75;;;;;;;;5167553;27;13457;-79
2021/12/24 15:28:07;;;;;;;;;5.00;3.00;;;;;;;;5186902;27;10574;-72
2021/12/24 15:30:32;;;;;;;;;5.00;5.00;;;;;;;;5185398;27;10833;-72
2021/12/24 15:32:57;;;;;;;;;3.50;2.25;;;;;;;;5185347;27;11511;-72
2021/12/24 15:35:22;;;;;;;;;8.50;5.50;;;;;;;;5187040;27;11585;-73
2021/12/24 15:37:48;;;;;;;;;5.25;2.75;;;;;;;;5185003;27;11283;-72
2021/12/24 15:40:13;;;;;;;;;5.25;4.00;;;;;;;;5187868;27;11374;-74
2021/12/24 15:42:38;;;;;;;;;5.00;5.00;;;;;;;;5185581;27;9020;-75
2021/12/24 15:45:04;;;;;;;;;5.50;5.50;;;;;;;;5187404;27;9681;-73
2021/12/24 15:47:29;;;;;;;;;5.25;5.25;;;;;;;;5183995;27;10078;-73
2021/12/24 15:49:55;;;;;;;;;3.50;3.00;;;;;;;;5171700;27;8788;-74
2021/12/24 15:52:21;;;;;;;;;6.25;2.00;;;;;;;;5172840;27;11966;-78
2021/12/24 15:54:46;;;;;;;;;2.50;1.75;;;;;;;;5170626;27;10737;-77
2021/12/24 15:57:11;;;;;;;;;7.75;5.25;;;;;;;;5172195;27;13091;-73
2021/12/24 15:59:37;;;;;;;;;7.75;6.75;;;;;;;;5153211;27;11566;-75
2021/12/24 16:02:03;;;;;;;;;5.25;3.50;;;;;;;;5172628;27;8792;-72
2021/12/24 16:04:28;;;;;;;;;10.00;5.50;;;;;;;;5171008;27;11542;-71
2021/12/24 16:06:54;;;;;;;;;6.25;6.25;;;;;;;;5171890;27;21471;-70
2021/12/24 16:09:21;;;;;;;;;6.25;6.25;;;;;;;;5173206;27;21619;-72
2021/12/24 16:11:47;;;;;;;;;6.25;6.25;;;;;;;;5171199;27;8960;-71
2021/12/24 16:14:13;;;;;;;;;8.50;6.50;;;;;;;;5172654;27;12193;-72
2021/12/24 16:16:40;;;;;;;;;9.00;6.50;;;;;;;;5171330;27;11473;-72
2021/12/24 16:19:06;;;;;;;;;5.75;5.00;;;;;;;;5167489;27;9050;-73
2021/12/24 16:21:31;;;;;;;;;5.00;5.00;;;;;;;;5168851;27;11520;-73
2021/12/24 16:23:56;;;;;;;;;7.50;7.00;;;;;;;;5165403;27;8916;-72
2021/12/24 16:26:22;;;;;;;;;4.25;4.00;;;;;;;;5164385;27;10318;-74
2021/12/24 16:28:47;;;;;;;;;7.00;6.00;;;;;;;;5162384;27;10820;-77
2021/12/24 16:31:12;;;;;;;;;8.00;6.00;;;;;;;;5166788;27;10276;-76
2021/12/24 16:33:38;;;;;;;;;8.00;6.25;;;;;;;;5151211;27;8845;-74
2021/12/24 16:36:03;;;;;;;;;9.00;9.00;;;;;;;;5170050;27;8824;-75
2021/12/24 16:38:28;;;;;;;;;5.00;4.50;;;;;;;;5170956;27;11963;-75
2021/12/24 16:40:55;;;;;;;;;10.50;10.50;;;;;;;;5169630;27;11302;-75
2021/12/24 16:43:20;;;;;;;;;9.75;9.25;;;;;;;;5170435;27;23509;-76
2021/12/24 16:45:47;;;;;;;;;11.25;10.00;;;;;;;;5170110;27;22769;-75
2021/12/24 16:48:13;;;;;;;;;13.50;11.00;;;;;;;;5169682;27;22590;-75
2021/12/24 16:50:39;;;;;;;;;17.50;11.75;;;;;;;;5169938;27;11485;-76
2021/12/24 16:53:05;;;;;;;;;14.75;12.25;;;;;;;;5151974;27;14492;-75
2021/12/24 16:55:30;;;;;;;;;13.50;10.75;;;;;;;;5169984;27;11594;-76
2021/12/24 16:57:57;;;;;;;;;12.00;10.50;;;;;;;;5170777;27;10525;-75
2021/12/24 17:00:23;;;;;;;;;14.00;10.50;;;;;;;;5170028;27;11455;-74
2021/12/24 17:02:48;;;;;;;;;7.25;7.00;;;;;;;;5169199;27;11497;-76
2021/12/24 17:05:14;;;;;;;;;14.75;11.50;;;;;;;;5164460;27;22462;-84
2021/12/24 17:07:39;;;;;;;;;7.25;6.00;;;;;;;;5160446;27;22268;-74
2021/12/24 17:10:07;;;;;;;;;10.25;10.00;;;;;;;;5161358;27;22824;-76
2021/12/24 17:12:32;;;;;;;;;10.75;10.50;;;;;;;;5142009;27;25645;-71
2021/12/24 17:15:01;;;;;;;;;16.50;8.25;;;;;;;;5160591;27;11508;-73
2021/12/24 17:17:27;;;;;;;;;9.25;8.00;;;;;;;;5161455;27;22123;-73
2021/12/24 17:19:58;;;;;;;;;9.75;9.75;;;;;;;;5160752;27;21800;-74
2021/12/24 17:22:27;;;;;;;;;15.00;11.00;;;;;;;;5167886;27;11484;-73
2021/12/24 17:24:53;;;;;;;;;12.00;11.00;;;;;;;;5170866;27;22499;-74
2021/12/24 17:27:19;;;;;;;;;11.00;11.00;;;;;;;;5161155;27;11607;-72
2021/12/24 17:29:44;;;;;;;;;11.75;10.00;;;;;;;;5160919;27;11563;-73
2021/12/24 17:32:10;;;;;;;;;10.75;10.75;;;;;;;;5161931;27;9508;-74
2021/12/24 17:34:35;;;;;;;;;13.50;11.00;;;;;;;;5161858;27;11348;-72
2021/12/24 17:37:01;;;;;;;;;11.25;11.25;;;;;;;;5141937;27;13350;-73
2021/12/24 17:39:26;;;;;;;;;12.25;10.25;;;;;;;;5161059;27;11508;-74
2021/12/24 17:41:51;;;;;;;;;13.50;12.00;;;;;;;;5161030;27;9504;-73
2021/12/24 17:44:17;;;;;;;;;17.00;14.00;;;;;;;;5160709;27;11597;-73
2021/12/24 17:46:43;;;;;;;;;14.50;14.25;;;;;;;;5160795;27;10338;-75
2021/12/24 17:49:08;;;;;;;;;17.75;15.50;;;;;;;;5160130;27;11395;-73
2021/12/24 17:51:33;;;;;;;;;17.25;14.25;;;;;;;;5160710;27;11434;-72
2021/12/24 17:53:59;;;;;;;;;16.25;12.75;;;;;;;;5160616;27;10334;-73
2021/12/24 17:56:26;;;;;;;;;17.50;14.25;;;;;;;;5161141;27;10518;-75
2021/12/24 17:58:58;;;;;;;;;16.50;16.00;;;;;;;;5161241;27;10554;-74
2021/12/24 18:01:24;;;;;;;;;16.75;15.00;;;;;;;;5160722;27;11697;-76
2021/12/24 18:03:49;;;;;;;;;16.75;14.25;;;;;;;;5161279;27;11623;-76
2021/12/24 18:06:15;;;;;;;;;16.00;13.75;;;;;;;;5160729;27;9383;-75
2021/12/24 18:08:41;;;;;;;;;16.75;15.00;;;;;;;;5170133;27;9885;-74
2021/12/24 18:11:07;;;;;;;;;20.25;16.00;;;;;;;;5182039;27;11485;-74
2021/12/24 18:13:33;;;;;;;;;19.75;17.25;;;;;;;;5181847;27;11891;-76
2021/12/24 18:15:59;;;;;;;;;19.50;16.00;;;;;;;;5181763;27;13733;-77
2021/12/24 18:18:25;;;;;;;;;12.75;12.75;;;;;;;;5181632;27;11490;-75
2021/12/24 18:20:50;;;;;;;;;16.50;16.00;;;;;;;;5174426;27;11778;-77
2021/12/24 18:23:15;;;;;;;;;18.50;14.25;;;;;;;;5170708;27;11361;-78
2021/12/24 18:25:41;;;;;;;;;16.50;16.00;;;;;;;;5160091;27;11598;-77
2021/12/24 18:28:06;;;;;;;;;14.75;13.00;;;;;;;;5160159;27;11370;-72
2021/12/24 18:30:32;;;;;;;;;19.50;14.50;;;;;;;;5159787;27;10336;-73
2021/12/24 18:32:57;;;;;;;;;16.50;13.75;;;;;;;;5160873;27;11897;-74
2021/12/24 18:35:25;;;;;;;;;15.00;15.00;;;;;;;;5160559;27;13169;-73
2021/12/24 18:40:28;;;;;;;;;20.00;16.00;;;;;;;;5160562;27;13572;-71
2021/12/24 18:42:54;;;;;;;;;19.75;16.75;;;;;;;;5160133;27;11493;-72
2021/12/24 18:45:20;;;;;;;;;15.25;13.25;;;;;;;;5160027;27;13363;-72
2021/12/24 18:47:45;;;;;;;;;17.50;16.25;;;;;;;;5160356;27;10466;-71
2021/12/24 18:50:10;;;;;;;;;16.25;12.00;;;;;;;;5140419;27;11530;-71
2021/12/24 18:52:36;;;;;;;;;2.00;0.00;;;;;;;;5159753;27;11612;-73
2021/12/24 18:55:01;;;;;;;;;14.50;13.75;;;;;;;;5158964;27;22450;-73
2021/12/24 18:57:26;;;;;;;;;12.50;11.50;;;;;;;;5160063;27;22646;-70
2021/12/24 18:59:52;;;;;;;;;16.25;16.00;;;;;;;;5161016;27;11393;-72
2021/12/24 19:02:17;;;;;;;;;14.25;12.00;;;;;;;;5174578;27;11409;-72
2021/12/24 19:04:42;;;;;;;;;20.00;14.50;;;;;;;;5181611;27;9632;-71
2021/12/24 19:07:09;;;;;;;;;16.50;15.50;;;;;;;;5180078;27;13447;-73
2021/12/24 19:09:34;;;;;;;;;15.50;15.50;;;;;;;;5180963;27;12328;-76
2021/12/24 19:12:00;;;;;;;;;20.00;19.75;;;;;;;;5159729;27;12242;-75
2021/12/24 19:14:25;;;;;;;;;18.50;18.25;;;;;;;;5159661;27;13794;-76
2021/12/24 19:16:50;;;;;;;;;20.50;14.25;;;;;;;;5140001;27;12877;-75
2021/12/24 19:19:16;;;;;;;;;21.50;18.00;;;;;;;;5159326;27;10605;-73
2021/12/24 19:21:43;;;;;;;;;21.00;17.00;;;;;;;;5159828;27;11678;-73
2021/12/24 19:24:08;;;;;;;;;22.50;20.00;;;;;;;;5161621;27;11571;-73
2021/12/24 19:26:34;;;;;;;;;21.75;19.00;;;;;;;;5144966;27;13411;-73
2021/12/24 19:29:01;;;;;;;;;22.50;17.50;;;;;;;;5172780;27;12593;-72
2021/12/24 19:31:27;;;;;;;;;19.75;18.25;;;;;;;;5172845;27;11965;-73
2021/12/24 19:33:52;;;;;;;;;17.00;16.25;;;;;;;;5151133;27;13333;-72
2021/12/24 19:36:17;;;;;;;;;19.50;19.50;;;;;;;;5156652;27;10980;-74
2021/12/24 19:38:43;;;;;;;;;17.00;15.50;;;;;;;;5171141;27;11567;-73
2021/12/24 19:41:08;;;;;;;;;18.00;16.00;;;;;;;;5172434;27;10320;-78
2021/12/24 19:43:33;;;;;;;;;19.25;19.25;;;;;;;;5172113;27;11373;-74
2021/12/24 19:45:59;;;;;;;;;23.00;14.00;;;;;;;;5170494;27;11512;-76
2021/12/24 19:48:24;;;;;;;;;16.25;15.25;;;;;;;;5172181;27;13342;-74
2021/12/24 19:50:52;;;;;;;;;17.25;13.50;;;;;;;;5171509;27;14364;-75
2021/12/24 19:53:18;;;;;;;;;15.25;15.25;;;;;;;;5170878;27;11447;-74
2021/12/24 19:55:44;;;;;;;;;11.75;10.25;;;;;;;;5170844;27;11507;-75
2021/12/24 19:58:10;;;;;;;;;13.75;10.75;;;;;;;;5171626;27;11559;-75
2021/12/24 20:00:36;;;;;;;;;14.50;12.00;;;;;;;;5171959;27;10340;-74
2021/12/24 20:03:01;;;;;;;;;16.25;11.50;;;;;;;;5172693;27;11486;-76
2021/12/24 20:05:28;;;;;;;;;16.25;12.25;;;;;;;;5170572;27;11600;-81
2021/12/24 20:07:53;;;;;;;;;11.25;10.50;;;;;;;;5171215;27;8943;-72
2021/12/24 20:10:20;;;;;;;;;14.50;11.25;;;;;;;;5172223;27;11499;-77
2021/12/24 20:12:46;;;;;;;;;14.25;11.50;;;;;;;;5170221;27;11450;-75
2021/12/24 20:15:13;;;;;;;;;18.00;16.50;;;;;;;;5170627;27;11505;-76
2021/12/24 20:17:38;;;;;;;;;14.50;13.25;;;;;;;;5167034;27;10600;-76
2021/12/24 20:20:05;;;;;;;;;18.50;14.75;;;;;;;;5162245;27;12199;-83
2021/12/24 20:22:30;;;;;;;;;13.75;13.75;;;;;;;;5143477;27;10936;-75
2021/12/24 20:24:56;;;;;;;;;16.50;13.00;;;;;;;;5162492;27;11550;-78
2021/12/24 20:27:21;;;;;;;;;13.00;12.25;;;;;;;;5161945;27;11364;-78
2021/12/24 20:29:46;;;;;;;;;15.75;13.00;;;;;;;;5148961;27;12638;-78
2021/12/24 20:32:12;;;;;;;;;17.50;15.75;;;;;;;;5179801;27;11971;-78
2021/12/24 20:34:37;;;;;;;;;19.75;15.75;;;;;;;;5182674;27;11794;-76
2021/12/24 20:37:03;;;;;;;;;15.00;14.00;;;;;;;;5183135;27;9078;-77
2021/12/24 20:39:28;;;;;;;;;20.50;19.00;;;;;;;;5183647;27;11412;-76
2021/12/24 20:41:53;;;;;;;;;21.75;15.50;;;;;;;;5183119;27;12216;-81
2021/12/24 20:44:19;;;;;;;;;23.25;20.75;;;;;;;;5181337;27;12577;-80
2021/12/24 20:46:46;;;;;;;;;20.50;19.00;;;;;;;;5153640;27;14003;-80
2021/12/24 20:49:12;;;;;;;;;15.25;15.00;;;;;;;;5171700;27;12451;-79
2021/12/24 20:51:37;;;;;;;;;20.50;18.75;;;;;;;;5168404;27;13394;-78
2021/12/24 20:54:02;;;;;;;;;23.00;20.50;;;;;;;;5179522;27;13437;-78
2021/12/24 20:56:28;;;;;;;;;31.00;25.00;;;;;;;;5182508;27;12211;-79
2021/12/24 20:58:53;;;;;;;;;29.00;24.75;;;;;;;;5175825;27;13362;-75
2021/12/24 21:01:19;;;;;;;;;23.50;21.50;;;;;;;;5162858;27;13376;-76
2021/12/24 21:03:45;;;;;;;;;21.50;18.75;;;;;;;;5162107;27;11773;-75
2021/12/24 21:06:11;;;;;;;;;30.00;19.50;;;;;;;;5161018;27;12311;-76
2021/12/24 21:08:37;;;;;;;;;26.00;26.00;;;;;;;;5161238;27;13384;-76
2021/12/24 21:11:02;;;;;;;;;32.25;24.00;;;;;;;;5161281;27;13288;-77
2021/12/24 21:13:28;;;;;;;;;30.00;25.00;;;;;;;;5161826;27;12251;-76
2021/12/24 21:15:53;;;;;;;;;57.25;43.75;;;;;;;;5161695;27;10516;-76
2021/12/24 21:18:19;;;;;;;;;43.00;35.25;;;;;;;;5162290;27;13225;-76
2021/12/24 21:20:45;;;;;;;;;49.50;38.00;;;;;;;;5176235;27;12382;-78
2021/12/24 21:23:11;;;;;;;;;43.50;37.00;;;;;;;;5145540;27;11944;-75
2021/12/24 21:25:36;;;;;;;;;35.25;32.25;;;;;;;;5180867;27;8977;-75
2021/12/24 21:28:04;;;;;;;;;26.50;24.00;;;;;;;;5181577;27;13622;-76
2021/12/24 21:30:30;;;;;;;;;30.25;25.75;;;;;;;;5182289;27;14661;-78
2021/12/24 21:32:55;;;;;;;;;24.75;21.25;;;;;;;;5163826;27;13307;-79
2021/12/24 21:35:21;;;;;;;;;35.00;30.50;;;;;;;;5161144;27;12268;-80
2021/12/24 21:37:49;;;;;;;;;37.25;30.25;;;;;;;;5172854;27;13446;-75
2021/12/24 21:40:17;;;;;;;;;28.50;28.00;;;;;;;;5160991;27;12680;-74
2021/12/24 21:42:43;;;;;;;;;18.50;17.00;;;;;;;;5161265;27;13508;-74
2021/12/24 21:45:09;;;;;;;;;21.50;20.50;;;;;;;;5152885;27;11516;-74
2021/12/24 21:47:36;;;;;;;;;19.25;16.25;;;;;;;;5180916;27;13881;-75
2021/12/24 21:50:01;;;;;;;;;19.00;16.50;;;;;;;;5181255;27;13313;-75
2021/12/24 21:52:26;;;;;;;;;23.00;21.00;;;;;;;;5181593;27;11472;-75
2021/12/24 21:54:52;;;;;;;;;18.75;16.25;;;;;;;;5181593;27;13457;-74
2021/12/24 21:57:17;;;;;;;;;26.50;23.75;;;;;;;;5162716;27;15332;-75
2021/12/24 21:59:45;;;;;;;;;22.75;20.00;;;;;;;;5182391;27;12377;-75
2021/12/24 22:02:10;;;;;;;;;23.00;21.50;;;;;;;;5181368;27;11521;-75
2021/12/24 22:04:45;;;;;;;;;26.25;21.25;;;;;;;;5181133;27;11775;-74
2021/12/24 22:09:54;;;;;;;;;22.50;19.00;;;;;;;;5181785;27;11481;-75
2021/12/24 22:12:20;;;;;;;;;23.25;19.00;;;;;;;;5181273;27;12520;-75
2021/12/24 22:14:45;;;;;;;;;19.75;19.75;;;;;;;;5162386;27;11081;-75
2021/12/24 22:17:11;;;;;;;;;25.00;21.00;;;;;;;;5181137;27;13504;-75
2021/12/24 22:19:36;;;;;;;;;30.25;22.00;;;;;;;;5181143;27;13242;-76
2021/12/24 22:22:03;;;;;;;;;21.00;20.00;;;;;;;;5180919;27;12198;-74
2021/12/24 22:24:30;;;;;;;;;22.75;21.75;;;;;;;;5181600;27;12793;-75
2021/12/24 22:26:55;;;;;;;;;23.75;21.00;;;;;;;;5181125;27;12377;-74
2021/12/24 22:29:22;;;;;;;;;27.75;24.75;;;;;;;;5180847;27;11535;-75
2021/12/24 22:31:51;;;;;;;;;23.00;22.00;;;;;;;;5162484;27;11869;-74
2021/12/24 22:34:17;;;;;;;;;18.00;18.00;;;;;;;;5181297;27;12042;-74
2021/12/24 22:36:42;;;;;;;;;16.75;15.50;;;;;;;;5181237;27;11693;-73
2021/12/24 22:39:08;;;;;;;;;20.50;18.00;;;;;;;;5181982;27;11811;-74
2021/12/24 22:41:35;;;;;;;;;12.00;12.00;;;;;;;;5181236;27;13276;-75
2021/12/24 22:44:01;;;;;;;;;16.25;14.75;;;;;;;;5179080;27;12252;-73
2021/12/24 22:46:27;;;;;;;;;20.25;17.50;;;;;;;;5179990;27;12679;-75
2021/12/24 22:48:53;;;;;;;;;21.75;18.50;;;;;;;;5181571;27;13384;-74
2021/12/24 22:51:19;;;;;;;;;19.50;15.25;;;;;;;;5179752;27;9817;-73
2021/12/24 22:53:45;;;;;;;;;19.00;15.25;;;;;;;;5181578;27;13493;-74
2021/12/24 22:56:10;;;;;;;;;15.00;14.25;;;;;;;;5162111;27;9089;-73
2021/12/24 22:58:36;;;;;;;;;18.25;16.75;;;;;;;;5182505;27;8788;-74
2021/12/24 23:01:03;;;;;;;;;15.00;15.00;;;;;;;;5185181;27;10511;-74
2021/12/24 23:03:30;;;;;;;;;10.75;10.75;;;;;;;;5185328;27;12656;-73
2021/12/24 23:05:55;;;;;;;;;17.00;14.00;;;;;;;;5184636;27;12612;-74
2021/12/24 23:08:21;;;;;;;;;20.50;18.00;;;;;;;;5184528;27;11475;-74
2021/12/24 23:10:53;;;;;;;;;18.50;14.00;;;;;;;;5185445;27;12864;-74
2021/12/24 23:13:18;;;;;;;;;19.00;16.75;;;;;;;;5185691;27;11225;-73
2021/12/24 23:15:48;;;;;;;;;17.50;14.25;;;;;;;;5184503;27;11699;-73
2021/12/24 23:18:18;;;;;;;;;15.00;13.75;;;;;;;;5185393;27;10569;-74
2021/12/24 23:20:44;;;;;;;;;16.25;11.75;;;;;;;;5185018;27;11511;-73
2021/12/24 23:23:09;;;;;;;;;15.25;14.50;;;;;;;;5184699;27;11481;-74
2021/12/24 23:25:34;;;;;;;;;17.50;14.25;;;;;;;;5165292;27;13688;-73
2021/12/24 23:28:00;;;;;;;;;16.50;14.50;;;;;;;;5184488;27;11563;-74
2021/12/24 23:30:25;;;;;;;;;9.75;9.75;;;;;;;;5184302;27;11519;-74
2021/12/24 23:32:50;;;;;;;;;13.00;12.00;;;;;;;;5165018;27;22710;-74
2021/12/24 23:35:16;;;;;;;;;13.00;12.00;;;;;;;;5183883;27;23479;-74
2021/12/24 23:37:41;;;;;;;;;15.75;14.75;;;;;;;;5184061;27;8811;-74
2021/12/24 23:40:07;;;;;;;;;13.50;11.50;;;;;;;;5184700;27;11521;-74
2021/12/24 23:42:33;;;;;;;;;13.00;12.75;;;;;;;;5184897;27;12991;-74
2021/12/24 23:45:19;;;;;;;;;12.25;12.25;;;;;;;;5184679;27;10389;-74
2021/12/24 23:47:44;;;;;;;;;10.75;9.75;;;;;;;;5184346;27;11469;-74
2021/12/24 23:50:10;;;;;;;;;11.75;10.75;;;;;;;;5183859;27;22483;-74
2021/12/24 23:52:39;;;;;;;;;9.50;9.50;;;;;;;;5183434;27;21384;-73
2021/12/24 23:55:05;;;;;;;;;10.75;10.75;;;;;;;;5183206;27;22501;-73
2021/12/24 23:57:32;;;;;;;;;13.25;9.50;;;;;;;;5176514;27;23430;-73
2021/12/24 23:59:57;;;;;;;;;13.75;12.75;;;;;;;;5183913;27;22118;-73
